createdAt,value
2023-04-05T00:00:01.040Z,0.20
2023-04-05T00:02:37.181Z,0.20
2023-04-05T00:05:09.923Z,0.20
2023-04-05T00:07:41.681Z,0.20
2023-04-05T00:10:13.488Z,0.10
2023-04-05T00:12:47.798Z,0.20
2023-04-05T00:15:22.015Z,0.20
2023-04-05T00:17:56.122Z,0.20
2023-04-05T00:20:29.304Z,0.20
2023-04-05T00:23:01.339Z,0.20
2023-04-05T00:25:33.099Z,0.20
2023-04-05T00:28:04.965Z,0.20
2023-04-05T00:30:36.869Z,0.20
2023-04-05T00:33:08.686Z,0.10
2023-04-05T00:35:40.664Z,0.10
2023-04-05T00:38:13.517Z,0.10
2023-04-05T00:40:45.396Z,0.00
2023-04-05T00:43:17.184Z,0.00
2023-04-05T00:45:49.035Z,-0.10
2023-04-05T00:48:20.906Z,-0.20
2023-04-05T00:50:52.807Z,-0.20
2023-04-05T00:53:24.582Z,-0.30
2023-04-05T00:55:57.258Z,-0.40
2023-04-05T00:58:32.079Z,-0.40
2023-04-05T01:01:06.572Z,-0.50
2023-04-05T01:03:39.013Z,-0.60
2023-04-05T01:06:11.103Z,-0.60
2023-04-05T01:08:52.323Z,-0.70
2023-04-05T01:11:26.427Z,-0.70
2023-04-05T01:14:01.743Z,-0.70
2023-04-05T01:16:33.585Z,-0.80
2023-04-05T01:19:05.465Z,-0.80
2023-04-05T01:21:39.953Z,-0.80
2023-04-05T01:24:35.035Z,-0.80
2023-04-05T01:27:06.776Z,-0.80
2023-04-05T01:29:38.515Z,-0.80
2023-04-05T01:32:22.239Z,-0.70
2023-04-05T01:34:59.999Z,-0.70
2023-04-05T01:37:34.421Z,-0.70
2023-04-05T01:40:06.680Z,-0.70
2023-04-05T01:42:38.566Z,-0.80
2023-04-05T01:45:10.424Z,-0.80
2023-04-05T01:47:42.579Z,-0.90
2023-04-05T01:50:14.476Z,-0.90
2023-04-05T01:52:46.437Z,-1.00
2023-04-05T01:55:18.188Z,-1.00
2023-04-05T01:57:52.313Z,-1.00
2023-04-05T02:00:24.140Z,-1.10
2023-04-05T02:02:56.212Z,-1.10
2023-04-05T02:05:28.083Z,-1.10
2023-04-05T02:07:59.853Z,-1.10
2023-04-05T02:10:33.828Z,-1.10
2023-04-05T02:13:05.895Z,-1.00
2023-04-05T02:15:37.878Z,-1.00
2023-04-05T02:18:10.358Z,-1.00
2023-04-05T02:20:42.536Z,-1.00
2023-04-05T02:23:17.176Z,-1.00
2023-04-05T02:25:51.860Z,-1.00
2023-04-05T02:28:23.692Z,-1.00
2023-04-05T02:30:55.622Z,-1.10
2023-04-05T02:33:29.920Z,-1.10
2023-04-05T02:36:06.645Z,-1.10
2023-04-05T02:38:38.716Z,-1.20
2023-04-05T02:41:13.046Z,-1.20
2023-04-05T02:43:47.054Z,-1.20
2023-04-05T02:46:21.512Z,-1.20
2023-04-05T02:48:55.904Z,-1.20
2023-04-05T02:51:28.058Z,-1.20
2023-04-05T02:54:00.937Z,-1.20
2023-04-05T02:56:32.694Z,-1.20
2023-04-05T02:59:04.495Z,-1.10
2023-04-05T03:01:44.471Z,-1.10
2023-04-05T03:04:19.613Z,-1.10
2023-04-05T03:06:52.289Z,-1.10
2023-04-05T03:09:24.048Z,-1.10
2023-04-05T03:11:55.986Z,-1.10
2023-04-05T03:14:28.081Z,-1.20
2023-04-05T03:16:59.888Z,-1.20
2023-04-05T03:19:32.427Z,-1.20
2023-04-05T03:22:04.396Z,-1.30
2023-04-05T03:24:38.767Z,-1.30
2023-04-05T03:27:11.690Z,-1.40
2023-04-05T03:29:43.537Z,-1.40
2023-04-05T03:32:15.674Z,-1.40
2023-04-05T03:34:47.496Z,-1.40
2023-04-05T03:37:19.514Z,-1.40
2023-04-05T03:39:53.922Z,-1.40
2023-04-05T03:42:27.833Z,-1.50
2023-04-05T03:45:00.151Z,-1.40
2023-04-05T03:47:32.160Z,-1.50
2023-04-05T03:50:04.384Z,-1.50
2023-04-05T03:52:36.286Z,-1.40
2023-04-05T03:55:08.254Z,-1.40
2023-04-05T03:57:40.594Z,-1.40
2023-04-05T04:00:15.415Z,-1.40
2023-04-05T04:02:48.199Z,-1.40
2023-04-05T04:05:21.466Z,-1.30
2023-04-05T04:07:53.283Z,-1.30
2023-04-05T04:10:27.283Z,-1.30
2023-04-05T04:13:01.384Z,-1.30
2023-04-05T04:15:33.160Z,-1.30
2023-04-05T04:18:07.127Z,-1.20
2023-04-05T04:20:41.340Z,-1.20
2023-04-05T04:23:14.503Z,-1.20
2023-04-05T04:25:46.776Z,-1.20
2023-04-05T04:28:19.667Z,-1.10
2023-04-05T04:30:51.707Z,-1.10
2023-04-05T04:33:24.171Z,-1.00
2023-04-05T04:35:58.257Z,-1.00
2023-04-05T04:38:30.145Z,-1.00
2023-04-05T04:41:06.553Z,-1.00
2023-04-05T04:43:43.778Z,-0.90
2023-04-05T04:46:19.318Z,-0.90
2023-04-05T04:48:51.447Z,-0.90
2023-04-05T04:51:23.415Z,-0.90
2023-04-05T04:53:55.299Z,-1.00
2023-04-05T04:56:27.583Z,-0.90
2023-04-05T04:58:59.393Z,-0.90
2023-04-05T05:01:31.996Z,-0.90
2023-04-05T05:04:04.340Z,-0.70
2023-04-05T05:06:38.411Z,-0.60
2023-04-05T05:09:10.197Z,-0.50
2023-04-05T05:11:41.990Z,-0.40
2023-04-05T05:14:13.754Z,-0.40
2023-04-05T05:16:45.893Z,-0.30
2023-04-05T05:19:17.689Z,-0.20
2023-04-05T05:21:50.256Z,-0.20
2023-04-05T05:24:22.422Z,-0.10
2023-04-05T05:26:54.167Z,-0.10
2023-04-05T05:29:25.926Z,0.00
2023-04-05T05:31:57.704Z,0.00
2023-04-05T05:34:29.454Z,0.10
2023-04-05T05:37:01.718Z,0.10
2023-04-05T05:39:33.496Z,0.20
2023-04-05T05:42:05.768Z,0.20
2023-04-05T05:44:39.938Z,0.30
2023-04-05T05:47:13.945Z,0.40
2023-04-05T05:49:49.643Z,0.50
2023-04-05T05:52:21.637Z,0.70
2023-04-05T05:54:53.440Z,0.70
2023-04-05T05:57:25.805Z,0.70
2023-04-05T05:59:59.913Z,0.70
2023-04-05T06:02:32.708Z,0.70
2023-04-05T06:05:04.967Z,0.70
2023-04-05T06:07:39.489Z,0.70
2023-04-05T06:10:12.561Z,0.70
2023-04-05T06:12:44.516Z,0.70
2023-04-05T06:15:16.306Z,0.70
2023-04-05T06:17:48.168Z,0.70
2023-04-05T06:20:20.010Z,0.70
2023-04-05T06:22:51.988Z,0.70
2023-04-05T06:25:23.746Z,0.80
2023-04-05T06:27:55.572Z,0.90
2023-04-05T06:30:29.666Z,1.00
2023-04-05T06:33:01.549Z,1.00
2023-04-05T06:35:33.353Z,1.10
2023-04-05T06:38:05.199Z,1.30
2023-04-05T06:40:36.937Z,2.00
2023-04-05T06:43:10.862Z,3.30
2023-04-05T06:45:42.902Z,5.00
2023-04-05T06:48:16.891Z,6.60
2023-04-05T06:50:56.751Z,8.00
2023-04-05T06:53:31.037Z,7.80
2023-04-05T06:56:07.521Z,6.50
2023-04-05T06:58:39.290Z,5.50
2023-04-05T07:01:13.565Z,4.30
2023-04-05T07:03:45.627Z,3.80
2023-04-05T07:06:19.882Z,3.50
2023-04-05T07:08:52.732Z,3.20
2023-04-05T07:11:24.472Z,3.00
2023-04-05T07:13:56.233Z,2.90
2023-04-05T07:16:28.316Z,2.90
2023-04-05T07:19:02.754Z,2.60
2023-04-05T07:21:34.837Z,2.50
2023-04-05T07:24:06.929Z,2.50
2023-04-05T07:26:41.041Z,2.50
2023-04-05T07:29:13.166Z,2.40
2023-04-05T07:31:44.918Z,2.40
2023-04-05T07:34:16.724Z,2.50
2023-04-05T07:36:50.500Z,2.50
2023-04-05T07:39:22.826Z,2.30
2023-04-05T07:41:57.025Z,2.20
2023-04-05T07:44:28.956Z,2.10
2023-04-05T07:47:00.813Z,2.20
2023-04-05T07:49:32.680Z,2.20
2023-04-05T07:52:04.541Z,2.20
2023-04-05T07:54:39.705Z,2.10
2023-04-05T07:57:16.383Z,2.10
2023-04-05T07:59:52.671Z,2.00
2023-04-05T08:02:24.526Z,2.00
2023-04-05T08:04:58.675Z,2.00
2023-04-05T08:07:30.675Z,2.00
2023-04-05T08:10:02.786Z,1.90
2023-04-05T08:12:38.919Z,1.90
2023-04-05T08:15:11.098Z,2.00
2023-04-05T08:17:45.056Z,2.20
2023-04-05T08:20:17.000Z,2.40
2023-04-05T08:22:48.844Z,2.70
2023-04-05T08:25:20.653Z,2.90
2023-04-05T08:27:52.473Z,3.20
2023-04-05T08:30:24.317Z,3.60
2023-04-05T08:32:58.677Z,3.80
2023-04-05T08:35:30.837Z,4.00
2023-04-05T08:38:02.888Z,4.10
2023-04-05T08:40:42.790Z,4.30
2023-04-05T08:43:33.421Z,4.20
2023-04-05T08:46:08.377Z,4.00
2023-04-05T08:48:41.573Z,4.00
2023-04-05T08:51:15.706Z,3.40
2023-04-05T08:53:47.840Z,3.00
2023-04-05T08:56:21.994Z,2.90
2023-04-05T08:59:14.019Z,2.70
2023-04-05T09:01:49.105Z,2.50
2023-04-05T09:04:21.896Z,2.40
2023-04-05T09:06:55.684Z,2.40
2023-04-05T09:09:28.836Z,2.50
2023-04-05T09:12:01.509Z,2.50
2023-04-05T09:14:37.928Z,2.50
2023-04-05T09:17:12.451Z,2.60
2023-04-05T09:19:44.386Z,2.70
2023-04-05T09:22:18.587Z,2.80
2023-04-05T09:24:51.097Z,3.10
2023-04-05T09:27:22.890Z,3.30
2023-04-05T09:29:54.756Z,3.50
2023-04-05T09:32:29.026Z,3.60
2023-04-05T09:35:04.690Z,3.60
2023-04-05T09:37:36.520Z,3.40
2023-04-05T09:40:11.324Z,3.30
2023-04-05T09:42:46.330Z,3.20
2023-04-05T09:45:18.800Z,3.00
2023-04-05T09:47:54.628Z,2.80
2023-04-05T09:50:26.574Z,2.60
2023-04-05T09:53:16.053Z,2.50
2023-04-05T09:55:48.076Z,2.50
2023-04-05T09:58:21.200Z,2.50
2023-04-05T10:01:00.030Z,2.50
2023-04-05T10:03:46.456Z,2.40
2023-04-05T10:06:20.541Z,2.50
2023-04-05T10:08:52.405Z,2.50
2023-04-05T10:11:27.808Z,2.50
2023-04-05T10:14:01.427Z,2.70
2023-04-05T10:16:36.919Z,2.90
2023-04-05T10:19:14.562Z,3.10
2023-04-05T10:21:47.376Z,3.30
2023-04-05T10:24:28.066Z,3.60
2023-04-05T10:27:05.888Z,3.80
2023-04-05T10:29:49.005Z,4.10
2023-04-05T10:32:31.220Z,4.40
2023-04-05T10:35:09.225Z,4.50
2023-04-05T10:38:00.202Z,4.50
2023-04-05T10:40:32.980Z,4.60
2023-04-05T10:43:07.251Z,4.90
2023-04-05T10:45:41.430Z,5.00
2023-04-05T10:48:25.413Z,4.90
2023-04-05T10:50:57.857Z,4.80
2023-04-05T10:53:30.895Z,4.70
2023-04-05T10:56:03.360Z,4.60
2023-04-05T10:58:36.350Z,4.50
2023-04-05T11:01:09.846Z,4.50
2023-04-05T11:03:42.841Z,4.50
2023-04-05T11:06:26.099Z,4.60
2023-04-05T11:09:00.413Z,4.60
2023-04-05T11:11:38.397Z,4.70
2023-04-05T11:14:22.484Z,4.50
2023-04-05T11:16:57.139Z,4.30
2023-04-05T11:19:44.353Z,4.30
2023-04-05T11:22:24.915Z,4.40
2023-04-05T11:25:03.134Z,4.50
2023-04-05T11:27:37.917Z,4.50
2023-04-05T11:30:12.371Z,4.60
2023-04-05T11:32:45.171Z,4.60
2023-04-05T11:35:23.788Z,4.70
2023-04-05T11:38:01.513Z,4.60
2023-04-05T11:40:34.724Z,4.70
2023-04-05T11:43:07.557Z,4.60
2023-04-05T11:45:40.249Z,4.60
2023-04-05T11:48:13.670Z,4.60
2023-04-05T11:50:48.029Z,4.40
2023-04-05T11:53:20.005Z,4.30
2023-04-05T11:55:52.157Z,4.30
2023-04-05T11:58:24.560Z,4.30
2023-04-05T12:01:03.621Z,4.20
2023-04-05T12:03:36.449Z,4.20
2023-04-05T12:06:08.400Z,4.30
2023-04-05T12:08:50.226Z,4.30
2023-04-05T12:11:26.190Z,4.20
2023-04-05T12:13:59.298Z,4.20
2023-04-05T12:16:31.295Z,4.20
2023-04-05T12:19:03.187Z,4.10
2023-04-05T12:21:35.025Z,4.10
2023-04-05T12:24:07.034Z,3.80
2023-04-05T12:26:38.824Z,3.50
2023-04-05T12:29:10.628Z,3.50
2023-04-05T12:31:43.412Z,3.50
2023-04-05T12:34:15.429Z,3.50
2023-04-05T12:36:48.662Z,3.60
2023-04-05T12:39:21.471Z,3.60
2023-04-05T12:41:57.374Z,3.60
2023-04-05T12:44:32.915Z,3.60
2023-04-05T12:47:09.291Z,3.60
2023-04-05T12:49:41.117Z,3.70
2023-04-05T12:52:19.309Z,3.70
2023-04-05T12:54:55.369Z,3.90
2023-04-05T12:57:33.241Z,3.80
2023-04-05T13:00:11.084Z,3.80
2023-04-05T13:02:42.968Z,3.80
2023-04-05T13:05:14.829Z,3.70
2023-04-05T13:07:47.198Z,3.60
2023-04-05T13:10:21.869Z,3.70
2023-04-05T13:12:56.077Z,3.80
2023-04-05T13:15:27.838Z,3.90
2023-04-05T13:17:59.747Z,3.90
2023-04-05T13:20:31.761Z,3.90
2023-04-05T13:23:03.680Z,3.80
2023-04-05T13:25:35.534Z,3.80
2023-04-05T13:28:07.455Z,3.90
2023-04-05T13:30:39.346Z,3.90
2023-04-05T13:33:11.145Z,4.00
2023-04-05T13:35:43.239Z,3.80
2023-04-05T13:38:15.529Z,3.80
2023-04-05T13:40:47.775Z,3.70
2023-04-05T13:43:19.635Z,3.70
2023-04-05T13:45:51.583Z,3.60
2023-04-05T13:48:23.337Z,3.70
2023-04-05T13:50:55.704Z,3.80
2023-04-05T13:53:28.644Z,3.90
2023-04-05T13:56:00.699Z,4.00
2023-04-05T13:58:32.444Z,4.10
2023-04-05T14:01:04.300Z,4.10
2023-04-05T14:03:36.154Z,4.10
2023-04-05T14:06:07.990Z,4.10
2023-04-05T14:08:39.754Z,4.10
2023-04-05T14:11:11.688Z,4.00
2023-04-05T14:13:43.454Z,4.00
2023-04-05T14:16:15.561Z,4.00
2023-04-05T14:18:47.405Z,4.10
2023-04-05T14:21:19.283Z,4.10
2023-04-05T14:23:54.332Z,4.20
2023-04-05T14:26:26.620Z,4.30
2023-04-05T14:28:58.426Z,4.30
2023-04-05T14:31:30.340Z,4.40
2023-04-05T14:34:02.240Z,4.40
2023-04-05T14:36:34.130Z,4.40
2023-04-05T14:39:05.915Z,4.20
2023-04-05T14:41:37.872Z,4.10
2023-04-05T14:44:09.609Z,4.20
2023-04-05T14:46:41.416Z,4.30
2023-04-05T14:49:13.174Z,4.30
2023-04-05T14:51:44.974Z,4.10
2023-04-05T14:54:16.992Z,4.10
2023-04-05T14:56:48.838Z,4.00
2023-04-05T14:59:20.788Z,3.80
2023-04-05T15:01:53.306Z,3.60
2023-04-05T15:04:25.670Z,3.50
2023-04-05T15:06:57.639Z,3.50
2023-04-05T15:09:31.923Z,3.50
2023-04-05T15:12:03.825Z,3.30
2023-04-05T15:14:35.642Z,3.30
2023-04-05T15:17:07.453Z,3.40
2023-04-05T15:19:39.261Z,3.40
2023-04-05T15:22:11.146Z,3.40
2023-04-05T15:24:43.409Z,3.40
2023-04-05T15:27:15.717Z,3.50
2023-04-05T15:29:49.573Z,3.50
2023-04-05T15:32:23.617Z,3.50
2023-04-05T15:34:58.038Z,3.50
2023-04-05T15:37:29.937Z,3.60
2023-04-05T15:40:04.452Z,3.50
2023-04-05T15:42:36.293Z,3.40
2023-04-05T15:45:08.435Z,3.30
2023-04-05T15:47:40.534Z,3.30
2023-04-05T15:50:12.485Z,3.30
2023-04-05T15:52:44.326Z,3.30
2023-04-05T15:55:16.158Z,3.20
2023-04-05T15:57:49.620Z,3.20
2023-04-05T16:00:22.568Z,3.30
2023-04-05T16:02:56.152Z,3.40
2023-04-05T16:05:28.940Z,3.40
2023-04-05T16:08:00.856Z,3.40
2023-04-05T16:10:32.610Z,3.40
2023-04-05T16:13:04.424Z,3.30
2023-04-05T16:15:36.173Z,3.10
2023-04-05T16:18:09.470Z,3.00
2023-04-05T16:20:42.150Z,2.90
2023-04-05T16:23:14.311Z,2.80
2023-04-05T16:25:46.350Z,2.80
2023-04-05T16:28:18.297Z,2.80
2023-04-05T16:30:51.798Z,2.80
2023-04-05T16:33:23.615Z,2.70
2023-04-05T16:35:56.222Z,2.70
2023-04-05T16:38:28.147Z,2.70
2023-04-05T16:40:59.889Z,2.70
2023-04-05T16:43:31.746Z,2.60
2023-04-05T16:46:06.007Z,2.60
2023-04-05T16:48:37.845Z,2.60
2023-04-05T16:51:09.566Z,2.60
2023-04-05T16:53:41.594Z,2.50
2023-04-05T16:56:13.393Z,2.50
2023-04-05T16:58:45.440Z,2.40
2023-04-05T17:01:17.221Z,2.40
2023-04-05T17:03:49.063Z,2.30
2023-04-05T17:06:20.916Z,2.20
2023-04-05T17:08:52.716Z,2.20
2023-04-05T17:11:24.905Z,2.20
2023-04-05T17:13:57.681Z,2.10
2023-04-05T17:16:29.525Z,2.00
2023-04-05T17:19:01.593Z,2.00
2023-04-05T17:21:35.475Z,2.00
2023-04-05T17:24:07.453Z,2.00
2023-04-05T17:26:39.261Z,1.90
2023-04-05T17:29:12.654Z,1.80
2023-04-05T17:31:46.921Z,1.80
2023-04-05T17:34:18.808Z,1.70
2023-04-05T17:36:50.726Z,1.70
2023-04-05T17:39:22.511Z,1.60
2023-04-05T17:41:56.042Z,1.50
2023-04-05T17:44:30.343Z,1.40
2023-04-05T17:47:09.126Z,1.40
2023-04-05T17:49:41.728Z,1.30
2023-04-05T17:52:13.530Z,1.20
2023-04-05T17:54:45.341Z,1.10
2023-04-05T17:57:17.124Z,1.10
2023-04-05T17:59:48.955Z,1.00
2023-04-05T18:02:20.880Z,0.90
2023-04-05T18:04:52.768Z,0.90
2023-04-05T18:07:24.557Z,0.80
2023-04-05T18:09:56.555Z,0.80
2023-04-05T18:12:28.326Z,0.80
2023-04-05T18:15:02.773Z,0.80
2023-04-05T18:17:34.696Z,0.80
2023-04-05T18:20:07.163Z,0.70
2023-04-05T18:22:38.989Z,0.70
2023-04-05T18:25:11.963Z,0.60
2023-04-05T18:27:43.866Z,0.60
2023-04-05T18:30:18.052Z,0.60
2023-04-05T18:32:50.847Z,0.50
2023-04-05T18:35:23.187Z,0.50
2023-04-05T18:37:57.079Z,0.40
2023-04-05T18:40:28.982Z,0.40
2023-04-05T18:43:00.904Z,0.40
2023-04-05T18:45:36.396Z,0.30
2023-04-05T18:48:08.317Z,0.40
2023-04-05T18:50:40.446Z,0.30
2023-04-05T18:53:15.508Z,0.30
2023-04-05T18:55:49.915Z,0.30
2023-04-05T18:58:21.711Z,0.30
2023-04-05T19:00:53.710Z,0.30
2023-04-05T19:03:25.775Z,0.20
2023-04-05T19:05:57.957Z,0.30
2023-04-05T19:08:29.795Z,0.20
2023-04-05T19:11:03.717Z,0.20
2023-04-05T19:13:35.508Z,0.20
2023-04-05T19:16:07.601Z,0.20
2023-04-05T19:18:39.486Z,0.20
2023-04-05T19:21:16.407Z,0.20
2023-04-05T19:23:48.243Z,0.10
2023-04-05T19:26:22.271Z,0.10
2023-04-05T19:28:55.138Z,0.10
2023-04-05T19:31:27.631Z,0.10
2023-04-05T19:33:59.460Z,0.10
2023-04-05T19:36:34.046Z,0.00
2023-04-05T19:39:10.381Z,0.00
2023-04-05T19:41:44.885Z,-0.10
2023-04-05T19:44:34.443Z,-0.10
2023-04-05T19:47:07.536Z,-0.10
2023-04-05T19:49:42.550Z,-0.10
2023-04-05T19:52:34.165Z,-0.20
2023-04-05T19:55:27.671Z,-0.20
2023-04-05T19:58:00.154Z,-0.30
2023-04-05T20:00:34.832Z,-0.30
2023-04-05T20:03:25.244Z,-0.30
2023-04-05T20:05:57.047Z,-0.30
2023-04-05T20:08:30.114Z,-0.30
2023-04-05T20:11:05.763Z,-0.20
2023-04-05T20:13:59.078Z,-0.20
2023-04-05T20:16:34.972Z,-0.20
2023-04-05T20:19:10.570Z,-0.10
2023-04-05T20:21:46.910Z,-0.10
2023-04-05T20:24:25.886Z,-0.10
2023-04-05T20:26:59.998Z,-0.20
2023-04-05T20:29:33.471Z,-0.20
2023-04-05T20:32:05.841Z,-0.20
2023-04-05T20:34:43.915Z,-0.30
2023-04-05T20:37:17.848Z,-0.30
2023-04-05T20:39:50.634Z,-0.40
2023-04-05T20:42:22.496Z,-0.40
2023-04-05T20:45:00.021Z,-0.50
2023-04-05T20:47:34.306Z,-0.50
2023-04-05T20:50:08.707Z,-0.60
2023-04-05T20:52:40.524Z,-0.60
2023-04-05T20:55:12.306Z,-0.70
2023-04-05T20:57:45.083Z,-0.80
2023-04-05T21:00:18.491Z,-0.80
2023-04-05T21:02:50.526Z,-0.80
2023-04-05T21:05:24.968Z,-0.90
2023-04-05T21:07:57.472Z,-0.90
2023-04-05T21:10:29.343Z,-1.00
2023-04-05T21:13:01.145Z,-1.00
2023-04-05T21:15:34.623Z,-1.00
2023-04-05T21:18:10.384Z,-1.10
2023-04-05T21:20:43.000Z,-1.10
2023-04-05T21:23:17.647Z,-1.10
2023-04-05T21:25:49.981Z,-1.10
2023-04-05T21:28:21.937Z,-1.10
2023-04-05T21:30:56.377Z,-1.10
2023-04-05T21:33:30.715Z,-1.10
2023-04-05T21:36:04.833Z,-1.10
2023-04-05T21:38:36.607Z,-1.10
2023-04-05T21:41:10.876Z,-1.10
2023-04-05T21:43:42.637Z,-1.20
2023-04-05T21:46:14.564Z,-1.20
2023-04-05T21:48:46.318Z,-1.20
2023-04-05T21:51:20.545Z,-1.30
2023-04-05T21:53:54.752Z,-1.30
2023-04-05T21:56:26.611Z,-1.40
2023-04-05T21:58:58.555Z,-1.30
2023-04-05T22:01:31.442Z,-1.40
2023-04-05T22:04:03.246Z,-1.40
2023-04-05T22:06:35.069Z,-1.40
2023-04-05T22:09:07.419Z,-1.50
2023-04-05T22:11:39.737Z,-1.40
2023-04-05T22:14:13.912Z,-1.40
2023-04-05T22:16:45.710Z,-1.40
2023-04-05T22:19:17.949Z,-1.40
2023-04-05T22:21:49.828Z,-1.40
2023-04-05T22:24:24.023Z,-1.40
2023-04-05T22:27:02.760Z,-1.40
2023-04-05T22:29:34.514Z,-1.40
2023-04-05T22:32:06.895Z,-1.50
2023-04-05T22:34:38.785Z,-1.50
2023-04-05T22:37:10.853Z,-1.50
2023-04-05T22:39:44.946Z,-1.50
2023-04-05T22:42:16.850Z,-1.50
2023-04-05T22:44:48.720Z,-1.60
2023-04-05T22:47:21.358Z,-1.50
2023-04-05T22:49:53.240Z,-1.60
2023-04-05T22:52:25.054Z,-1.60
2023-04-05T22:54:56.881Z,-1.60
2023-04-05T22:57:29.330Z,-1.60
2023-04-05T23:00:01.129Z,-1.60
2023-04-05T23:02:32.985Z,-1.60
2023-04-05T23:05:05.135Z,-1.60
2023-04-05T23:07:37.024Z,-1.60
2023-04-05T23:10:09.053Z,-1.60
2023-04-05T23:12:41.189Z,-1.70
2023-04-05T23:15:13.372Z,-1.60
2023-04-05T23:17:48.682Z,-1.60
2023-04-05T23:20:20.412Z,-1.60
2023-04-05T23:22:52.287Z,-1.60
2023-04-05T23:25:26.375Z,-1.60
2023-04-05T23:27:58.120Z,-1.60
2023-04-05T23:30:29.865Z,-1.60
2023-04-05T23:33:01.701Z,-1.50
2023-04-05T23:35:33.519Z,-1.50
2023-04-05T23:38:05.591Z,-1.40
2023-04-05T23:40:37.346Z,-1.40
2023-04-05T23:43:09.142Z,-1.40
2023-04-05T23:45:41.391Z,-1.30
2023-04-05T23:48:15.275Z,-1.20
2023-04-05T23:50:49.270Z,-1.10
2023-04-05T23:53:21.183Z,-1.00
2023-04-05T23:55:58.406Z,-0.90
2023-04-05T23:58:30.305Z,-0.80
